• Join FlightAware (Why Join?)
  • Login
  • US Flag GB Flag 
06:41 EDT


 

Airport Tracker/Info


-or-


 

Live Flight TrackerFlight Track Log ✈ AAY800 ✈ 27-Mar-2014 ✈ KPIE - KTOL

Flight Track Log - Related Links

Times and Time Zones

All times are in EDT time to prevent confusion due to time zone crossing. See the AAY800 flight status page for this flight to view local times or setup timezone preferences in your user account.

Time Position Orientation Groundspeed Altitude Reporting Facility
EDT Latitude Longitude Course Direction KTS MPH feet Rate Location/Type
17:35 27.9000 -82.6833 180° South 163 188 600  Level Tampa TRACON
17:36 27.8667 -82.6833 180° South 176 203 1,600 1,080 Climbing Tampa TRACON
17:37 27.8167 -82.7000 196° South 219 252 2,300 1,140 Climbing Tampa TRACON
17:38 27.7667 -82.7500 222° Southwest 271 312 4,000 2,220 Climbing Tampa TRACON
17:39 27.7833 -82.8167 286° West 265 305 6,800 2,520 Climbing Tampa TRACON
17:40 27.8333 -82.8833 310° West 275 316 9,100 1,620 Climbing Tampa TRACON
17:42 27.9933 -82.8644 North 343 395 11,900 1,500 Climbing Jacksonville Center
17:43 28.0936 -82.8197 21° North 367 422 13,800 2,100 Climbing Jacksonville Center
17:44 28.2042 -82.7936 12° North 386 444 16,100 2,040 Climbing Jacksonville Center
17:45 28.3147 -82.7417 22° Northeast 405 466 17,900 1,740 Climbing Jacksonville Center
17:46 28.4253 -82.6894 23° Northeast 416 479 19,700 960 Climbing Jacksonville Center
17:47 28.5358 -82.6397 22° Northeast 421 484 19,900 300 Climbing Jacksonville Center
17:48 28.6461 -82.5875 23° Northeast 426 490 20,400 540 Climbing Jacksonville Center
17:49 28.7797 -82.5397 17° North 438 504 21,100 840 Climbing Jacksonville Center
17:50 28.9047 -82.5178 North 444 511 22,100 1,020 Climbing Jacksonville Center
17:51 29.0300 -82.5292 355° North 444 511 23,200 1,140 Climbing Jacksonville Center
17:52 29.1575 -82.5431 355° North 444 511 24,500 1,320 Climbing Jacksonville Center
17:53 29.2828 -82.5617 353° North 449 517 25,900 660 Climbing Jacksonville Center
17:54 29.4081 -82.5828 352° North 449 517 25,900 420 Level Jacksonville Center
17:55 29.5356 -82.6061 351° North 449 517 26,800 1,260 Climbing Jacksonville Center
17:56 29.6567 -82.6272 351° North 449 517 28,400 1,440 Climbing Jacksonville Center
17:57 29.7694 -82.6533 349° North 449 517 29,700 1,200 Climbing Jacksonville Center
17:58 29.8842 -82.6769 350° North 444 511 30,900 1,080 Climbing Jacksonville Center
17:59 30.0011 -82.6958 352° North 434 499 31,900 900 Climbing Jacksonville Center
18:00 30.1306 -82.7197 351° North 427 491 32,800 480 Climbing Jacksonville Center
18:01 30.2456 -82.7386 352° North 427 491 32,900 60 Climbing Jacksonville Center
18:02 30.3625 -82.7625 350° North 427 491 33,000  Climbing Jacksonville Center
18:03 30.4794 -82.7842 351° North 427 491 32,900 -60 Descending Jacksonville Center
18:04 30.5881 -82.8081 349° North 433 498 32,900  Level Jacksonville Center
18:05 30.7050 -82.8297 351° North 428 493 33,000  Climbing Jacksonville Center
18:06 30.8239 -82.8564 349° North 428 493 32,900  Descending Jacksonville Center
18:07 30.9431 -82.8781 351° North 428 493 33,000  Climbing Jacksonville Center
18:08 31.0642 -82.9000 351° North 428 493 32,900  Descending Jacksonville Center
18:10 31.2972 -82.9453 351° North 448 516 33,000  Climbing Atlanta Center
18:11 31.4311 -82.9706 351° North 443 510 33,000  Level Atlanta Center
18:12 31.5461 -82.9958 349° North 436 502 33,000  Level Atlanta Center
18:13 31.6672 -83.0189 351° North 436 502 33,000  Level Atlanta Center
18:14 31.7864 -83.0419 351° North 431 496 33,000  Level Atlanta Center
18:15 31.9075 -83.0653 351° North 431 496 33,000  Level Atlanta Center
18:16 32.0267 -83.0883 351° North 431 496 33,000  Level Atlanta Center
18:17 32.1417 -83.1117 350° North 431 496 33,000  Level Atlanta Center
18:18 32.2608 -83.1325 352° North 431 496 33,000  Level Atlanta Center
18:19 32.3800 -83.1608 349° North 431 496 33,000  Level Atlanta Center
18:20 32.4972 -83.1842 350° North 431 496 33,000  Level Atlanta Center
18:21 32.6164 -83.2078 351° North 431 496 33,000  Level Atlanta Center
18:22 32.7375 -83.2314 351° North 431 496 33,000 -480 Level Atlanta Center
18:23 32.8567 -83.2550 351° North 431 496 32,100 -540 Descending Atlanta Center
18:24 32.9758 -83.2786 351° North 431 496 32,000 -60 Descending Atlanta Center
18:25 33.0908 -83.3050 349° North 424 488 32,000  Level Atlanta Center
18:26 33.2078 -83.3311 349° North 423 487 32,000  Level Atlanta Center
18:27 33.3247 -83.3525 351° North 423 487 32,000  Level Atlanta Center
18:28 33.4417 -83.3767 350° North 429 494 32,000  Level Atlanta Center
18:29 33.5506 -83.3983 351° North 429 494 32,000  Level Atlanta Center
18:30 33.6653 -83.4222 350° North 429 494 32,000  Level Atlanta Center
18:31 33.7844 -83.4439 351° North 429 494 32,000  Level Atlanta Center
18:32 33.8994 -83.4681 350° North 424 488 32,000  Level Atlanta Center
18:33 34.0164 -83.4925 350° North 424 488 32,000  Level Atlanta Center
18:34 34.1311 -83.5144 351° North 424 488 32,000  Level Atlanta Center
18:35 34.2483 -83.5386 350° North 424 488 32,000  Level Atlanta Center
18:36 34.3631 -83.5631 350° North 424 488 32,000  Level Atlanta Center
18:37 34.4781 -83.5878 350° North 424 488 32,000  Level Atlanta Center
18:38 34.5928 -83.6122 350° North 424 488 32,000  Level Atlanta Center
18:39 34.7181 -83.6394 350° North 417 480 32,000  Level Atlanta Center
18:40 34.8308 -83.6617 351° North 412 474 32,000  Level Atlanta Center
18:41 34.9436 -83.6917 348° North 412 474 32,000  Level Atlanta Center
18:42 35.0586 -83.7139 351° North 412 474 32,000  Level Atlanta Center
18:43 35.1714 -83.7389 350° North 412 474 32,000  Level Atlanta Center
18:44 35.2819 -83.7639 350° North 412 474 32,000  Level Atlanta Center
18:45 35.3947 -83.7867 351° North 412 474 32,000  Level Atlanta Center
18:46 35.5072 -83.8117 350° North 412 474 32,000  Level Atlanta Center
18:47 35.6200 -83.8369 350° North 412 474 32,000  Level Atlanta Center
18:48 35.7347 -83.8597 351° North 412 474 32,000  Level Atlanta Center
18:49 35.8456 -83.8850 350° North 412 474 32,000  Level Atlanta Center
18:50 35.9581 -83.9053 352° North 412 474 32,000  Level Atlanta Center
18:51 36.0708 -83.9206 354° North 412 474 32,000  Level Atlanta Center
18:52 36.1783 -83.9344 354° North 408 470 32,000  Level Indianapolis Center
18:53 36.2914 -83.9514 353° North 409 471 32,000  Level Indianapolis Center
18:54 36.4047 -83.9681 353° North 409 471 32,000  Level Indianapolis Center
18:55 36.5289 -83.9828 355° North 412 474 32,000  Level Indianapolis Center
18:56 36.6481 -83.9747 North 422 486 32,000  Level Indianapolis Center
18:57 36.7875 -83.9661 North 425 489 32,000  Level Indianapolis Center
18:58 36.9081 -83.9586 North 426 490 32,000  Level Indianapolis Center
18:59 37.0286 -83.9506 North 429 494 32,000  Level Indianapolis Center
19:00 37.1489 -83.9442 North 429 494 32,000  Level Indianapolis Center
19:01 37.2689 -83.9344 North 429 494 32,000  Level Indianapolis Center
19:02 37.3889 -83.9253 North 429 494 32,000  Level Indianapolis Center
19:03 37.5092 -83.9197 North 430 495 32,000  Level Indianapolis Center
19:04 37.6508 -83.9083 North 430 495 32,000  Level Indianapolis Center
19:05 37.7714 -83.9003 North 430 495 32,000  Level Indianapolis Center
19:06 37.8911 -83.8925 North 430 495 32,000  Level Indianapolis Center
19:07 38.0119 -83.8853 North 430 495 32,000  Level Indianapolis Center
19:08 38.1342 -83.8767 North 432 497 32,000  Level Indianapolis Center
19:09 38.2547 -83.8692 North 432 497 32,000  Level Indianapolis Center
19:10 38.3769 -83.8614 North 433 498 32,000  Level Indianapolis Center
19:11 38.5189 -83.8519 North 433 498 32,000  Level Indianapolis Center
19:12 38.6403 -83.8433 North 434 499 32,000  Level Indianapolis Center
19:13 38.7556 -83.8342 North 435 501 32,000  Level Indianapolis Center
19:14 38.8781 -83.8264 North 437 503 32,000  Level Indianapolis Center
19:15 39.0006 -83.8153 North 439 505 32,000  Level Indianapolis Center
19:16 39.1478 -83.8053 North 439 505 32,000  Level Indianapolis Center
19:17 39.2697 -83.7956 North 439 505 32,000 -780 Level Indianapolis Center
19:18 39.3931 -83.7864 North 439 505 30,500 -2,040 Descending Indianapolis Center
19:19 39.5194 -83.7769 North 447 514 27,900 -2,520 Descending Indianapolis Center
19:21 39.6492 -83.7681 North 458 527 25,300 -1,440 Descending Indianapolis Center
19:22 39.7775 -83.7589 North 461 531 25,000 -660 Descending Indianapolis Center
19:23 39.9036 -83.7494 North 451 519 24,000 -720 Descending Indianapolis Center
19:24 40.0289 -83.7397 North 449 517 23,600 -840 Descending Indianapolis Center
19:25 40.1531 -83.7317 North 448 516 22,300 -1,380 Descending Indianapolis Center
19:26 40.2986 -83.7214 North 439 505 20,800 -1,140 Descending Indianapolis Center
19:27 40.4178 -83.7122 North 434 499 20,000 -960 Descending Indianapolis Center
19:28 40.5344 -83.7047 North 425 489 18,900 -1,320 Descending Indianapolis Center
19:29 40.6492 -83.6956 North 417 480 17,400 -960 Descending Indianapolis Center
19:30 40.7531 -83.6869 North 383 441 17,000 -420 Descending Indianapolis Center
19:31 40.8536 -83.6811 North 363 418 16,600 -1,140 Descending Indianapolis Center
19:32 40.9636 -83.6714 North 389 448 14,700 -2,160 Descending Indianapolis Center
19:33 41.0889 -83.6619 North 390 449 12,200 -2,040 Descending Indianapolis Center
19:34 41.1514 -83.6736 352° North 375 432 11,200 -1,260 Descending Cleveland Center
19:35 41.2369 -83.7239 336° Northwest 338 389 10,000 -1,440 Descending Cleveland Center
19:36 41.3236 -83.7756 336° Northwest 288 331 8,300 -2,160 Descending Cleveland Center
19:37 41.3878 -83.8178 334° Northwest 261 300 5,600 -2,520 Descending Cleveland Center
19:38 41.4536 -83.8581 335° Northwest 260 299 3,100 -1,440 Descending Cleveland Center
19:39 41.5128 -83.8972 334° Northwest 250 288 2,700 -540 Descending Cleveland Center
19:40 41.5669 -83.9156 346° North 218 251 2,000 -720 Descending Cleveland Center